createdAt,value
2023-05-10T05:00:58.099Z,186.10
2023-05-10T05:03:44.483Z,189.55
2023-05-10T05:06:31.020Z,198.50
2023-05-10T05:09:17.305Z,192.32
2023-05-10T05:12:03.837Z,193.15
2023-05-10T05:14:50.155Z,182.57
2023-05-10T05:47:21.936Z,132.93
2023-05-10T05:50:09.222Z,131.27
2023-05-10T05:52:56.201Z,149.48
2023-05-10T05:55:42.551Z,138.07
2023-05-10T05:58:28.940Z,110.95
2023-05-10T06:01:15.242Z,126.47
2023-05-10T06:04:03.124Z,114.07
2023-05-10T06:06:49.600Z,120.65
2023-05-10T06:09:35.779Z,121.75
2023-05-10T06:12:22.138Z,108.63
2023-05-10T06:15:09.818Z,110.43
2023-05-10T06:17:56.618Z,112.78
2023-05-10T06:20:44.883Z,96.03
2023-05-10T06:23:30.986Z,99.75
2023-05-10T06:26:17.409Z,96.97
2023-05-10T06:29:03.579Z,87.18
2023-05-10T06:31:49.671Z,94.30
2023-05-10T06:34:35.720Z,81.18
2023-05-10T06:37:23.346Z,72.70
2023-05-10T06:40:10.916Z,63.70
2023-05-10T06:42:57.731Z,56.42
2023-05-10T06:45:44.320Z,42.50
2023-05-10T06:48:30.767Z,41.88
2023-05-10T06:51:17.037Z,40.88
2023-05-10T06:54:04.676Z,38.00
2023-05-10T06:56:51.325Z,24.88
2023-05-10T06:59:38.345Z,32.30
2023-05-10T07:02:25.075Z,26.80
2023-05-10T07:05:11.615Z,21.38
2023-05-10T07:07:58.804Z,20.25
2023-05-10T07:10:46.200Z,18.05
2023-05-10T07:13:33.132Z,21.63
2023-05-10T07:16:19.738Z,13.13
2023-05-10T07:19:06.566Z,11.93
2023-05-10T07:21:52.689Z,12.90
2023-05-10T07:24:39.094Z,12.52
2023-05-10T07:27:27.088Z,13.93
2023-05-10T07:30:14.886Z,12.85
2023-05-10T07:33:01.386Z,16.80
2023-05-10T07:35:48.174Z,15.48
2023-05-10T07:38:34.933Z,14.85
2023-05-10T07:41:21.910Z,20.88
2023-05-10T07:44:09.524Z,20.40
2023-05-10T07:46:57.238Z,19.50
2023-05-10T07:49:44.426Z,23.25
2023-05-10T07:52:30.921Z,18.02
2023-05-10T07:55:17.467Z,22.30
2023-05-10T07:58:04.616Z,22.98
2023-05-10T08:00:52.448Z,20.00
2023-05-10T08:03:38.958Z,15.98
2023-05-10T08:06:27.810Z,17.00
2023-05-10T08:09:14.248Z,17.80
2023-05-10T08:12:00.926Z,16.48
2023-05-10T08:14:47.375Z,16.67
2023-05-10T08:17:35.229Z,19.55
2023-05-10T08:20:21.756Z,19.48
2023-05-10T08:23:09.137Z,14.35
2023-05-10T08:25:55.538Z,15.63
2023-05-10T08:28:41.990Z,16.17
2023-05-10T08:31:28.294Z,12.48
2023-05-10T08:34:16.329Z,14.48
2023-05-10T08:37:02.881Z,15.93
2023-05-10T08:39:49.112Z,14.38
2023-05-10T08:42:38.836Z,12.57
2023-05-10T08:45:26.432Z,14.85
2023-05-10T08:48:13.404Z,12.02
2023-05-10T08:51:02.968Z,16.80
2023-05-10T08:53:49.717Z,15.07
2023-05-10T08:56:35.866Z,12.07
2023-05-10T08:59:22.070Z,11.43
2023-05-10T09:02:11.449Z,12.93
2023-05-10T09:04:57.747Z,12.90
2023-05-10T09:07:45.738Z,12.88
2023-05-10T09:10:32.934Z,13.18
2023-05-10T09:13:20.586Z,9.93
2023-05-10T09:16:20.276Z,10.32
2023-05-10T09:19:07.983Z,8.50
2023-05-10T09:21:54.313Z,10.13
2023-05-10T09:24:46.046Z,11.25
2023-05-10T09:27:32.466Z,7.85
2023-05-10T09:30:24.833Z,8.35
2023-05-10T09:33:11.093Z,8.25
2023-05-10T09:35:57.432Z,8.75
2023-05-10T09:38:50.335Z,7.00
2023-05-10T09:41:37.853Z,10.30
2023-05-10T09:44:24.219Z,6.65
2023-05-10T09:47:10.723Z,7.88
2023-05-10T09:49:59.267Z,6.60
2023-05-10T09:52:50.186Z,8.75
2023-05-10T09:55:45.661Z,12.45
2023-05-10T09:58:33.026Z,7.07
2023-05-10T10:01:19.114Z,7.95
2023-05-10T10:04:07.414Z,7.75
2023-05-10T10:07:04.798Z,8.93
2023-05-10T10:09:51.702Z,7.45
2023-05-10T10:12:38.141Z,7.32
2023-05-10T13:12:43.670Z,8.63
2023-05-10T13:15:32.310Z,9.25
2023-05-10T13:18:18.747Z,11.93
2023-05-10T13:21:06.343Z,9.68
2023-05-10T13:23:52.780Z,12.38
2023-05-10T13:26:39.122Z,11.70
2023-05-10T13:29:27.086Z,15.10
2023-05-10T13:32:13.250Z,14.93
2023-05-10T13:34:59.378Z,12.05
2023-05-10T13:37:46.326Z,13.57
2023-05-10T13:40:32.623Z,10.52
2023-05-10T13:43:21.924Z,11.30
2023-05-10T13:46:09.860Z,12.30
2023-05-10T13:48:55.857Z,12.13
2023-05-10T13:51:42.178Z,15.90
2023-05-10T13:54:30.378Z,12.82
2023-05-10T13:57:17.737Z,11.18
2023-05-10T14:00:04.196Z,11.70
2023-05-10T14:02:55.794Z,12.52
2023-05-10T14:05:42.298Z,11.70
2023-05-10T14:08:28.999Z,11.60
2023-05-10T14:11:16.641Z,11.00
2023-05-10T14:14:03.447Z,13.15
2023-05-10T14:16:49.951Z,12.48
2023-05-10T14:19:37.548Z,14.18
2023-05-10T14:22:24.525Z,14.57
2023-05-10T14:25:11.346Z,11.63
2023-05-10T14:27:57.656Z,12.93
2023-05-10T14:30:43.674Z,11.50
2023-05-10T14:33:30.261Z,14.07
2023-05-10T14:36:17.974Z,15.13
2023-05-10T14:39:04.987Z,11.25
2023-05-10T14:41:52.328Z,14.52
2023-05-10T14:44:38.265Z,16.15
2023-05-10T14:47:24.182Z,11.95
2023-05-10T14:50:10.821Z,14.07
2023-05-10T14:53:00.395Z,13.85
2023-05-10T14:55:46.735Z,10.98
2023-05-10T14:58:34.233Z,11.88
2023-05-10T16:00:25.939Z,12.57
2023-05-10T16:03:13.717Z,14.77
2023-05-10T16:06:00.262Z,12.63
2023-05-10T16:08:47.347Z,12.85
2023-05-10T16:11:33.561Z,12.60
2023-05-10T16:14:21.316Z,10.70
2023-05-10T17:42:34.259Z,13.05
2023-05-10T17:45:24.280Z,11.20
2023-05-10T17:48:11.431Z,13.05
2023-05-10T17:50:58.178Z,11.52
2023-05-10T17:53:44.623Z,12.32
2023-05-10T17:56:31.060Z,10.75
2023-05-10T17:59:18.781Z,13.23
2023-05-10T18:02:05.071Z,15.75
2023-05-10T18:04:51.270Z,14.82
2023-05-10T18:07:37.762Z,16.50
2023-05-10T18:10:25.371Z,12.27
2023-05-10T18:13:11.854Z,12.93
2023-05-10T18:15:59.677Z,13.52
2023-05-10T18:18:45.793Z,10.65
2023-05-10T18:21:32.571Z,12.38
2023-05-10T18:24:26.499Z,11.45
2023-05-10T18:27:23.694Z,11.35
2023-05-10T18:30:12.304Z,12.98
2023-05-10T18:32:59.772Z,14.40
2023-05-10T18:35:46.360Z,14.15
2023-05-10T18:38:32.843Z,11.60
2023-05-10T18:41:19.495Z,12.10
2023-05-10T18:44:06.108Z,13.95
2023-05-10T18:46:54.192Z,10.95
2023-05-10T18:49:43.680Z,16.13
2023-05-10T18:52:30.083Z,11.75
2023-05-10T18:55:16.457Z,13.68
2023-05-10T18:58:02.796Z,10.90
2023-05-10T19:37:45.709Z,17.67
2023-05-10T19:51:54.356Z,24.20
2023-05-10T22:00:17.135Z,26.80
2023-05-10T22:03:05.090Z,28.65
2023-05-10T22:05:51.327Z,23.08
2023-05-10T22:08:37.564Z,27.38
2023-05-10T22:11:24.083Z,31.73
2023-05-10T22:14:10.233Z,24.58
